createdAt,value
2019-03-20T00:00:34.247Z,5.85
2019-03-20T00:05:36.019Z,5.86
2019-03-20T00:10:37.772Z,5.82
2019-03-20T00:15:39.506Z,5.77
2019-03-20T00:20:41.169Z,5.72
2019-03-20T00:25:42.872Z,5.66
2019-03-20T00:30:44.575Z,5.66
2019-03-20T00:35:46.283Z,5.63
2019-03-20T00:40:47.989Z,5.65
2019-03-20T00:45:49.706Z,5.62
2019-03-20T00:50:51.483Z,5.64
2019-03-20T00:55:53.091Z,5.66
2019-03-20T01:00:54.658Z,5.69
2019-03-20T01:05:56.237Z,5.70
2019-03-20T01:10:57.858Z,5.72
2019-03-20T01:15:59.601Z,5.74
2019-03-20T01:21:01.268Z,5.72
2019-03-20T01:26:03.097Z,5.66
2019-03-20T01:31:04.874Z,5.61
2019-03-20T01:36:06.597Z,5.57
2019-03-20T01:41:08.333Z,5.53
2019-03-20T01:46:09.995Z,5.52
2019-03-20T01:51:18.969Z,5.46
2019-03-20T01:56:20.549Z,5.37
2019-03-20T02:01:22.438Z,5.39
2019-03-20T02:06:24.074Z,5.37
2019-03-20T02:11:25.924Z,5.35
2019-03-20T02:16:27.562Z,5.27
2019-03-20T02:21:29.173Z,5.21
2019-03-20T02:26:30.875Z,5.21
2019-03-20T02:31:32.619Z,5.17
2019-03-20T02:36:34.338Z,5.10
2019-03-20T02:41:35.932Z,5.06
2019-03-20T02:46:37.535Z,4.98
2019-03-20T02:51:39.119Z,4.87
2019-03-20T02:56:40.822Z,4.84
2019-03-20T03:01:42.542Z,4.83
2019-03-20T03:06:44.126Z,4.78
2019-03-20T03:11:45.874Z,4.72
2019-03-20T03:16:47.601Z,4.67
2019-03-20T03:21:49.241Z,4.62
2019-03-20T03:26:50.866Z,4.53
2019-03-20T03:31:52.497Z,4.45
2019-03-20T03:36:54.167Z,4.46
2019-03-20T03:41:55.729Z,4.39
2019-03-20T03:46:57.380Z,4.31
2019-03-20T03:51:59.127Z,4.24
2019-03-20T03:57:00.945Z,4.20
2019-03-20T04:02:02.643Z,4.21
2019-03-20T04:07:04.425Z,4.21
2019-03-20T04:12:06.137Z,4.11
2019-03-20T04:17:24.794Z,4.11
2019-03-20T04:22:26.357Z,4.11
2019-03-20T04:27:28.039Z,4.05
2019-03-20T04:32:29.802Z,4.05
2019-03-20T04:37:31.377Z,3.99
2019-03-20T04:42:32.995Z,3.98
2019-03-20T04:47:34.784Z,3.91
2019-03-20T04:52:36.621Z,3.85
2019-03-20T04:57:38.513Z,3.85
2019-03-20T05:02:40.292Z,3.84
2019-03-20T05:07:41.982Z,3.84
2019-03-20T05:12:43.690Z,3.79
2019-03-20T05:17:45.293Z,3.76
2019-03-20T05:22:47.189Z,3.75
2019-03-20T05:27:48.908Z,3.74
2019-03-20T05:32:50.495Z,3.69
2019-03-20T05:37:52.146Z,3.67
2019-03-20T05:42:53.739Z,3.72
2019-03-20T05:47:55.308Z,3.74
2019-03-20T05:52:56.911Z,3.73
2019-03-20T05:57:58.473Z,3.74
2019-03-20T06:03:00.041Z,3.75
2019-03-20T06:08:01.634Z,3.77
2019-03-20T06:13:03.310Z,3.82
2019-03-20T06:18:04.884Z,3.85
2019-03-20T06:23:06.573Z,3.88
2019-03-20T06:28:08.550Z,3.89
2019-03-20T06:33:10.247Z,3.88
2019-03-20T06:38:11.839Z,3.92
2019-03-20T06:43:13.445Z,3.99
2019-03-20T06:48:15.014Z,4.01
2019-03-20T06:53:16.749Z,4.04
2019-03-20T06:58:18.461Z,4.02
2019-03-20T07:03:45.463Z,4.08
2019-03-20T07:08:54.727Z,4.20
2019-03-20T07:13:56.293Z,4.26
2019-03-20T07:18:57.901Z,4.37
2019-03-20T07:23:59.645Z,4.43
2019-03-20T07:29:01.372Z,4.50
2019-03-20T07:34:03.137Z,4.54
2019-03-20T07:39:07.297Z,4.59
2019-03-20T07:44:08.918Z,4.66
2019-03-20T07:49:10.528Z,4.73
2019-03-20T07:54:12.127Z,4.81
2019-03-20T07:59:13.923Z,4.85
2019-03-20T08:04:15.816Z,4.89
2019-03-20T08:09:17.918Z,4.94
2019-03-20T08:14:20.025Z,5.05
2019-03-20T08:19:21.896Z,5.11
2019-03-20T08:24:23.485Z,5.18
2019-03-20T08:29:25.025Z,5.28
2019-03-20T08:34:26.565Z,5.37
2019-03-20T08:39:28.166Z,5.45
2019-03-20T08:44:29.703Z,5.54
2019-03-20T08:49:31.296Z,5.61
2019-03-20T08:54:32.857Z,5.72
2019-03-20T08:59:34.455Z,5.80
2019-03-20T09:04:36.057Z,5.86
2019-03-20T09:09:38.574Z,5.98
2019-03-20T09:14:40.319Z,6.07
2019-03-20T09:19:41.968Z,6.18
2019-03-20T09:24:43.548Z,6.24
2019-03-20T09:29:45.097Z,6.29
2019-03-20T09:34:46.642Z,6.43
2019-03-20T09:39:48.196Z,7.53
2019-03-20T09:44:49.769Z,7.91
2019-03-20T09:49:51.384Z,8.08
2019-03-20T09:55:07.061Z,8.17
2019-03-20T10:00:14.935Z,8.19
2019-03-20T10:05:16.571Z,8.24
2019-03-20T10:10:19.394Z,8.36
2019-03-20T10:15:21.042Z,8.37
2019-03-20T10:20:22.695Z,8.45
2019-03-20T10:25:24.249Z,8.58
2019-03-20T10:30:25.847Z,8.79
2019-03-20T10:35:27.406Z,8.94
2019-03-20T10:40:29.226Z,9.10
2019-03-20T10:45:30.970Z,9.20
2019-03-20T10:50:32.689Z,9.22
2019-03-20T10:55:34.452Z,9.38
2019-03-20T11:00:36.143Z,9.56
2019-03-20T11:05:37.783Z,9.71
2019-03-20T11:10:39.448Z,9.88
2019-03-20T11:15:41.133Z,10.13
2019-03-20T11:20:42.703Z,10.37
2019-03-20T11:25:44.503Z,10.59
2019-03-20T11:30:46.067Z,10.86
2019-03-20T11:35:47.597Z,12.35
2019-03-20T11:40:49.225Z,20.09
2019-03-20T11:45:50.833Z,24.74
2019-03-20T11:50:52.479Z,27.52
2019-03-20T11:55:54.263Z,29.60
2019-03-20T12:00:55.811Z,30.55
2019-03-20T12:05:57.381Z,30.96
2019-03-20T12:10:58.924Z,29.27
2019-03-20T12:16:00.689Z,27.59
2019-03-20T12:21:02.725Z,27.46
2019-03-20T12:26:04.597Z,27.29
2019-03-20T12:31:06.826Z,25.55
2019-03-20T12:36:08.658Z,24.32
2019-03-20T12:41:10.302Z,23.02
2019-03-20T12:46:11.943Z,22.20
2019-03-20T12:51:13.507Z,21.13
2019-03-20T12:56:15.040Z,20.46
2019-03-20T13:01:16.925Z,20.30
2019-03-20T13:06:19.901Z,20.02
2019-03-20T13:11:21.453Z,20.07
2019-03-20T13:16:23.027Z,19.28
2019-03-20T13:21:25.884Z,19.22
2019-03-20T13:26:27.843Z,19.00
2019-03-20T13:31:29.389Z,19.01
2019-03-20T13:36:30.956Z,18.92
2019-03-20T13:41:32.528Z,18.59
2019-03-20T13:46:34.076Z,18.05
2019-03-20T13:51:35.668Z,17.93
2019-03-20T13:56:37.286Z,17.53
2019-03-20T14:01:38.855Z,17.55
2019-03-20T14:06:40.512Z,17.47
2019-03-20T14:11:42.114Z,17.04
2019-03-20T14:16:43.786Z,16.20
2019-03-20T14:21:45.349Z,16.42
2019-03-20T14:26:46.947Z,16.43
2019-03-20T14:31:48.656Z,16.35
2019-03-20T14:36:50.273Z,16.40
2019-03-20T14:41:52.112Z,16.24
2019-03-20T14:46:53.793Z,15.64
2019-03-20T14:51:55.420Z,15.62
2019-03-20T14:56:57.027Z,15.56
2019-03-20T15:01:58.752Z,15.45
2019-03-20T15:07:00.330Z,15.34
2019-03-20T15:12:02.011Z,15.25
2019-03-20T15:17:03.660Z,15.23
2019-03-20T15:22:05.232Z,15.61
2019-03-20T15:27:06.824Z,15.66
2019-03-20T15:32:08.556Z,15.74
2019-03-20T15:37:10.126Z,16.08
2019-03-20T15:42:11.750Z,16.33
2019-03-20T15:47:13.441Z,16.52
2019-03-20T15:52:15.027Z,16.40
2019-03-20T15:57:16.656Z,16.68
2019-03-20T16:02:18.281Z,16.86
2019-03-20T16:07:19.996Z,17.10
2019-03-20T16:12:21.607Z,17.08
2019-03-20T16:17:23.504Z,17.18
2019-03-20T16:22:25.130Z,17.31
2019-03-20T16:27:26.842Z,18.54
2019-03-20T16:32:28.430Z,19.69
2019-03-20T16:37:30.142Z,18.74
2019-03-20T16:42:31.832Z,19.52
2019-03-20T16:47:33.400Z,18.96
2019-03-20T16:52:34.993Z,18.79
2019-03-20T16:57:36.683Z,17.69
2019-03-20T17:02:38.252Z,17.96
2019-03-20T17:07:39.817Z,16.28
2019-03-20T17:12:41.392Z,15.41
2019-03-20T17:17:43.003Z,14.26
2019-03-20T17:22:44.749Z,13.50
2019-03-20T17:27:46.420Z,12.97
2019-03-20T17:32:48.097Z,12.63
2019-03-20T17:37:49.845Z,12.41
2019-03-20T17:42:51.663Z,12.19
2019-03-20T17:47:53.762Z,12.03
2019-03-20T17:52:55.700Z,11.84
2019-03-20T17:57:57.417Z,11.70
2019-03-20T18:03:00.036Z,11.65
2019-03-20T18:08:01.960Z,11.55
2019-03-20T18:13:03.970Z,11.46
2019-03-20T18:18:06.284Z,11.32
2019-03-20T18:23:07.818Z,11.19
2019-03-20T18:28:09.402Z,11.12
2019-03-20T18:33:10.970Z,11.05
2019-03-20T18:38:12.727Z,11.01
2019-03-20T18:43:14.343Z,10.99
2019-03-20T18:48:16.021Z,10.92
2019-03-20T18:53:17.719Z,10.83
2019-03-20T18:58:19.368Z,10.58
2019-03-20T19:03:21.047Z,10.48
2019-03-20T19:08:22.770Z,10.51
2019-03-20T19:13:24.678Z,10.46
2019-03-20T19:18:26.357Z,10.42
2019-03-20T19:23:28.013Z,10.33
2019-03-20T19:28:29.693Z,10.27
2019-03-20T19:33:31.341Z,10.13
2019-03-20T19:38:35.213Z,10.13
2019-03-20T19:43:36.660Z,10.11
2019-03-20T19:48:38.553Z,10.02
2019-03-20T19:53:40.145Z,9.93
2019-03-20T19:58:41.771Z,9.86
2019-03-20T20:03:43.344Z,9.87
2019-03-20T20:08:45.736Z,9.93
2019-03-20T20:13:47.334Z,9.89
2019-03-20T20:18:49.078Z,9.94
2019-03-20T20:23:50.962Z,10.03
2019-03-20T20:28:52.565Z,10.14
2019-03-20T20:33:54.302Z,10.23
2019-03-20T20:38:55.890Z,10.20
2019-03-20T20:43:57.479Z,10.20
2019-03-20T20:49:01.981Z,10.25
2019-03-20T20:54:03.752Z,10.33
2019-03-20T20:59:05.451Z,10.32
2019-03-20T21:04:07.132Z,10.28
2019-03-20T21:09:08.702Z,10.31
2019-03-20T21:14:10.294Z,10.27
2019-03-20T21:19:34.230Z,10.23
2019-03-20T21:24:36.423Z,10.21
2019-03-20T21:30:05.221Z,10.17
2019-03-20T21:35:50.686Z,10.13
2019-03-20T21:41:14.092Z,10.13
2019-03-20T21:47:16.258Z,10.15
2019-03-20T21:52:18.409Z,10.10
2019-03-20T21:57:34.543Z,10.03
2019-03-20T22:02:43.130Z,9.97
2019-03-20T22:07:45.436Z,9.90
2019-03-20T22:13:24.026Z,9.78
2019-03-20T22:18:59.314Z,9.70
2019-03-20T22:24:40.855Z,9.67
2019-03-20T22:29:43.251Z,9.62
2019-03-20T22:35:19.185Z,9.64
2019-03-20T22:41:04.679Z,9.64
2019-03-20T22:46:54.591Z,9.64
2019-03-20T22:52:28.977Z,9.68
2019-03-20T22:57:53.253Z,9.74
2019-03-20T23:03:01.192Z,9.76
2019-03-20T23:08:11.748Z,9.73
2019-03-20T23:13:18.933Z,9.72
2019-03-20T23:18:18.133Z,9.69
2019-03-20T23:23:20.299Z,9.70
2019-03-20T23:28:22.945Z,9.71
2019-03-20T23:33:25.116Z,9.72
2019-03-20T23:38:28.680Z,9.69
2019-03-20T23:43:31.088Z,9.69
2019-03-20T23:48:37.374Z,9.64
2019-03-20T23:53:43.907Z,9.57
2019-03-20T23:58:46.163Z,9.53
